createdAt,value
2019-05-13T00:01:34.320Z,99.20
2019-05-13T00:04:00.418Z,98.90
2019-05-13T00:06:27.310Z,99.10
2019-05-13T00:08:54.411Z,99.00
2019-05-13T00:11:23.867Z,98.90
2019-05-13T00:13:50.187Z,98.90
2019-05-13T00:16:17.332Z,98.80
2019-05-13T00:18:44.536Z,98.70
2019-05-13T00:21:11.327Z,98.70
2019-05-13T00:23:38.167Z,99.00
2019-05-13T00:26:05.088Z,98.90
2019-05-13T00:28:34.285Z,98.90
2019-05-13T00:31:00.723Z,98.70
2019-05-13T00:33:27.491Z,98.50
2019-05-13T00:35:54.244Z,98.60
2019-05-13T00:38:20.999Z,98.70
2019-05-13T00:40:47.707Z,98.70
2019-05-13T00:43:14.580Z,98.70
2019-05-13T00:45:44.171Z,98.80
2019-05-13T00:48:10.675Z,98.70
2019-05-13T00:50:37.648Z,98.50
2019-05-13T00:53:04.630Z,98.60
2019-05-13T00:55:34.075Z,98.80
2019-05-13T00:58:00.437Z,98.80
2019-05-13T01:00:27.416Z,98.90
2019-05-13T01:02:54.148Z,98.80
2019-05-13T01:05:23.281Z,99.00
2019-05-13T01:07:49.779Z,98.80
2019-05-13T01:10:16.933Z,98.80
2019-05-13T01:12:44.190Z,98.60
2019-05-13T01:15:13.466Z,98.40
2019-05-13T01:17:40.302Z,98.40
2019-05-13T01:20:07.570Z,98.30
2019-05-13T01:22:34.573Z,98.30
2019-05-13T01:25:03.760Z,98.20
2019-05-13T01:27:30.027Z,98.20
2019-05-13T01:29:56.929Z,98.30
2019-05-13T01:32:23.938Z,98.20
2019-05-13T01:34:50.823Z,98.30
2019-05-13T01:37:17.795Z,98.30
2019-05-13T01:39:44.674Z,98.00
2019-05-13T01:42:13.710Z,97.90
2019-05-13T01:44:40.479Z,98.00
2019-05-13T01:47:07.481Z,98.20
2019-05-13T01:49:34.244Z,98.30
2019-05-13T01:52:03.490Z,98.30
2019-05-13T01:54:29.931Z,98.30
2019-05-13T01:56:56.704Z,98.40
2019-05-13T01:59:23.968Z,98.20
2019-05-13T02:01:50.908Z,98.30
2019-05-13T02:04:17.662Z,98.20
2019-05-13T02:06:44.638Z,98.20
2019-05-13T02:09:11.391Z,98.20
2019-05-13T02:11:38.264Z,98.30
2019-05-13T02:14:05.690Z,98.20
2019-05-13T02:16:33.864Z,98.40
2019-05-13T02:19:03.655Z,98.40
2019-05-13T02:21:29.854Z,98.30
2019-05-13T02:23:56.847Z,98.60
2019-05-13T02:26:24.110Z,98.50
2019-05-13T02:28:51.187Z,98.60
2019-05-13T02:31:26.796Z,98.60
2019-05-13T02:33:46.675Z,98.80
2019-05-13T02:36:13.873Z,98.60
2019-05-13T02:38:42.771Z,98.80
2019-05-13T02:41:09.428Z,98.80
2019-05-13T02:43:40.732Z,99.00
2019-05-13T02:46:05.156Z,99.10
2019-05-13T02:48:33.201Z,99.10
2019-05-13T02:51:03.309Z,99.30
2019-05-13T02:53:29.101Z,99.30
2019-05-13T02:55:56.073Z,99.30
2019-05-13T02:58:25.338Z,99.40
2019-05-13T03:00:53.433Z,99.50
2019-05-13T03:03:23.185Z,99.50
2019-05-13T03:05:52.337Z,99.60
2019-05-13T03:08:34.224Z,99.70
2019-05-13T03:10:47.296Z,99.80
2019-05-13T03:13:14.163Z,99.80
2019-05-13T03:15:57.485Z,99.90
2019-05-13T03:18:24.348Z,99.90
2019-05-13T03:20:52.959Z,99.90
2019-05-13T03:23:22.749Z,99.90
2019-05-13T03:25:48.904Z,99.90
2019-05-13T03:28:15.796Z,99.90
2019-05-13T03:30:45.872Z,99.90
2019-05-13T03:33:18.607Z,99.90
2019-05-13T03:35:45.596Z,99.90
2019-05-13T03:38:12.532Z,99.90
2019-05-13T03:40:42.508Z,99.90
2019-05-13T03:43:12.603Z,99.90
2019-05-13T03:45:39.587Z,99.90
2019-05-13T03:48:06.585Z,99.90
2019-05-13T03:50:34.600Z,99.90
2019-05-13T03:53:03.037Z,99.90
2019-05-13T03:55:32.830Z,99.90
2019-05-13T03:58:02.558Z,99.50
2019-05-13T04:00:27.835Z,99.40
2019-05-13T04:02:55.208Z,98.80
2019-05-13T04:05:23.177Z,98.60
2019-05-13T04:07:52.326Z,98.60
2019-05-13T04:10:22.423Z,98.60
2019-05-13T04:12:48.200Z,98.40
2019-05-13T04:15:15.307Z,98.30
2019-05-13T04:17:42.916Z,98.30
2019-05-13T04:20:12.565Z,98.50
2019-05-13T04:22:42.339Z,98.30
2019-05-13T04:25:08.525Z,98.40
2019-05-13T04:27:35.969Z,98.30
2019-05-13T04:30:04.536Z,98.30
2019-05-13T04:32:33.509Z,98.20
2019-05-13T04:35:03.458Z,98.20
2019-05-13T04:37:32.607Z,98.10
2019-05-13T04:39:58.263Z,97.90
2019-05-13T04:42:25.340Z,97.90
2019-05-13T04:44:53.257Z,98.10
2019-05-13T04:47:22.901Z,97.90
2019-05-13T04:49:53.199Z,97.80
2019-05-13T04:52:18.495Z,97.70
2019-05-13T04:54:45.242Z,97.20
2019-05-13T04:57:12.705Z,96.60
2019-05-13T04:59:44.327Z,96.00
2019-05-13T05:02:42.949Z,96.10
2019-05-13T05:05:28.916Z,95.60
2019-05-13T05:08:06.973Z,95.30
2019-05-13T05:11:18.187Z,95.30
2019-05-13T05:14:25.950Z,95.40
2019-05-13T05:17:13.997Z,95.30
2019-05-13T05:20:07.812Z,95.60
2019-05-13T05:23:12.487Z,95.70
2019-05-13T05:26:08.883Z,95.60
2019-05-13T05:28:46.879Z,95.80
2019-05-13T05:31:38.061Z,95.80
2019-05-13T05:34:42.867Z,96.00
2019-05-13T05:37:52.190Z,95.60
2019-05-13T05:40:30.940Z,95.60
2019-05-13T05:42:51.848Z,94.80
2019-05-13T05:45:21.826Z,94.60
2019-05-13T05:47:51.138Z,94.10
2019-05-13T05:50:18.277Z,93.60
2019-05-13T05:52:47.231Z,93.00
2019-05-13T05:55:14.175Z,92.70
2019-05-13T05:57:41.791Z,92.30
2019-05-13T06:00:11.542Z,91.60
2019-05-13T06:02:42.651Z,90.90
2019-05-13T06:05:11.840Z,90.60
2019-05-13T06:07:39.443Z,89.50
2019-05-13T06:10:06.723Z,87.50
2019-05-13T06:12:34.268Z,85.50
2019-05-13T06:15:02.599Z,84.60
2019-05-13T06:17:31.977Z,83.10
2019-05-13T06:20:02.790Z,83.30
2019-05-13T06:22:28.191Z,82.10
2019-05-13T06:24:55.267Z,81.30
2019-05-13T06:27:22.143Z,80.90
2019-05-13T06:29:50.329Z,79.90
2019-05-13T06:32:23.534Z,79.60
2019-05-13T06:34:46.971Z,75.50
2019-05-13T06:37:13.978Z,73.00
2019-05-13T06:39:42.008Z,73.10
2019-05-13T06:42:11.457Z,70.50
2019-05-13T06:44:37.963Z,70.20
2019-05-13T06:47:04.833Z,70.20
2019-05-13T06:49:32.236Z,68.20
2019-05-13T06:52:01.693Z,68.20
2019-05-13T06:54:28.267Z,68.50
2019-05-13T06:56:55.103Z,66.80
2019-05-13T06:59:22.473Z,64.70
2019-05-13T07:01:51.410Z,61.20
2019-05-13T07:04:18.407Z,62.30
2019-05-13T07:06:45.168Z,61.30
2019-05-13T07:09:12.193Z,61.40
2019-05-13T07:11:41.460Z,62.80
2019-05-13T07:14:07.887Z,64.50
2019-05-13T07:16:34.783Z,64.00
2019-05-13T07:19:02.607Z,65.90
2019-05-13T07:21:32.136Z,64.10
2019-05-13T07:23:58.787Z,66.00
2019-05-13T07:26:25.639Z,63.50
2019-05-13T07:28:52.966Z,65.10
2019-05-13T07:31:21.810Z,62.70
2019-05-13T07:33:51.555Z,59.70
2019-05-13T07:36:17.763Z,63.20
2019-05-13T07:38:45.179Z,63.60
2019-05-13T07:41:12.144Z,58.80
2019-05-13T07:43:39.323Z,59.50
2019-05-13T07:46:06.165Z,58.00
2019-05-13T07:48:33.192Z,56.40
2019-05-13T07:51:03.881Z,57.50
2019-05-13T07:53:28.759Z,54.20
2019-05-13T07:55:55.495Z,52.00
2019-05-13T07:58:23.003Z,53.30
2019-05-13T08:00:51.954Z,49.40
2019-05-13T08:03:21.256Z,50.00
2019-05-13T08:05:47.401Z,51.20
2019-05-13T08:08:14.251Z,49.90
2019-05-13T08:10:41.589Z,49.10
2019-05-13T08:13:08.563Z,50.20
2019-05-13T08:15:35.303Z,48.50
2019-05-13T08:18:02.355Z,48.70
2019-05-13T08:20:29.105Z,48.40
2019-05-13T08:22:55.955Z,47.70
2019-05-13T08:25:22.951Z,46.30
2019-05-13T08:27:51.442Z,47.00
2019-05-13T08:30:18.720Z,44.70
2019-05-13T08:32:45.483Z,45.40
2019-05-13T08:35:12.726Z,46.40
2019-05-13T08:37:41.356Z,45.90
2019-05-13T08:40:11.877Z,44.70
2019-05-13T08:42:38.348Z,43.30
2019-05-13T08:45:05.939Z,44.00
2019-05-13T08:47:32.923Z,42.70
2019-05-13T08:50:03.849Z,41.80
2019-05-13T08:52:31.188Z,43.50
2019-05-13T08:54:57.560Z,43.10
2019-05-13T08:57:24.440Z,39.90
2019-05-13T08:59:51.774Z,40.10
2019-05-13T09:02:18.912Z,40.70
2019-05-13T09:04:45.727Z,41.20
2019-05-13T09:07:13.110Z,40.60
2019-05-13T09:09:41.919Z,40.40
2019-05-13T09:12:11.432Z,41.50
2019-05-13T09:14:37.819Z,41.30
2019-05-13T09:17:04.763Z,39.10
2019-05-13T09:19:32.547Z,38.30
2019-05-13T09:22:02.802Z,35.80
2019-05-13T09:24:36.000Z,35.10
2019-05-13T09:26:57.256Z,33.70
2019-05-13T09:29:23.993Z,31.90
2019-05-13T09:31:51.860Z,33.00
2019-05-13T09:34:21.916Z,35.00
2019-05-13T09:36:47.861Z,32.00
2019-05-13T09:39:14.580Z,31.30
2019-05-13T09:41:44.423Z,29.60
2019-05-13T09:44:12.273Z,30.40
2019-05-13T09:46:38.695Z,29.60
2019-05-13T09:51:34.350Z,29.30
2019-05-13T09:54:01.420Z,28.30
2019-05-13T09:56:28.551Z,28.70
2019-05-13T09:58:55.459Z,29.00
2019-05-13T10:01:22.708Z,27.90
2019-05-13T10:03:54.811Z,28.60
2019-05-13T10:06:18.286Z,28.10
2019-05-13T10:08:45.024Z,27.40
2019-05-13T10:11:12.452Z,28.70
2019-05-13T10:13:39.579Z,28.50
2019-05-13T10:16:06.494Z,28.80
2019-05-13T10:18:33.307Z,27.50
2019-05-13T10:21:00.963Z,27.40
2019-05-13T10:23:28.203Z,28.20
2019-05-13T10:25:59.067Z,28.30
2019-05-13T10:28:26.733Z,28.30
2019-05-13T10:30:53.793Z,28.60
2019-05-13T10:33:22.129Z,27.30
2019-05-13T10:35:52.440Z,28.40
2019-05-13T10:38:22.064Z,28.40
2019-05-13T10:40:48.479Z,24.80
2019-05-13T10:43:29.891Z,23.90
2019-05-13T10:45:44.215Z,25.20
2019-05-13T10:48:12.923Z,26.20
2019-05-13T10:50:41.825Z,25.80
2019-05-13T10:53:12.021Z,24.40
2019-05-13T10:55:37.539Z,24.80
2019-05-13T10:58:04.509Z,25.20
2019-05-13T11:00:42.310Z,24.30
2019-05-13T11:03:11.766Z,23.30
2019-05-13T11:05:42.085Z,22.50
2019-05-13T11:08:08.013Z,23.80
2019-05-13T11:10:35.115Z,24.20
2019-05-13T11:13:06.232Z,22.10
2019-05-13T11:15:32.723Z,22.80
2019-05-13T11:18:02.855Z,22.80
2019-05-13T11:20:28.700Z,21.90
2019-05-13T11:22:56.135Z,23.00
2019-05-13T11:25:23.119Z,22.60
2019-05-13T11:27:52.411Z,21.80
2019-05-13T11:30:21.619Z,23.50
2019-05-13T11:32:51.479Z,22.60
2019-05-13T11:35:17.289Z,22.60
2019-05-13T11:37:44.047Z,21.40
2019-05-13T11:40:12.148Z,21.80
2019-05-13T11:42:41.980Z,22.70
2019-05-13T11:45:11.501Z,22.20
2019-05-13T11:47:37.452Z,22.40
2019-05-13T11:50:04.701Z,21.50
2019-05-13T11:52:31.696Z,21.40
2019-05-13T11:54:58.809Z,22.80
2019-05-13T11:57:25.844Z,24.10
2019-05-13T11:59:52.874Z,25.10
2019-05-13T12:02:23.165Z,25.70
2019-05-13T12:04:48.727Z,25.50
2019-05-13T12:07:15.753Z,24.20
2019-05-13T12:09:42.794Z,24.10
2019-05-13T12:12:13.069Z,23.50
2019-05-13T12:14:56.444Z,24.40
2019-05-13T12:17:07.487Z,24.50
2019-05-13T12:19:34.352Z,24.80
2019-05-13T12:22:02.726Z,24.70
2019-05-13T12:24:29.775Z,24.30
2019-05-13T12:26:56.668Z,25.50
2019-05-13T12:29:23.627Z,25.80
2019-05-13T12:31:52.622Z,25.80
2019-05-13T12:34:18.979Z,25.80
2019-05-13T12:36:45.956Z,27.50
2019-05-13T12:39:14.305Z,29.10
2019-05-13T12:41:42.782Z,29.50
2019-05-13T12:44:12.780Z,28.00
2019-05-13T12:46:41.278Z,29.70
2019-05-13T12:49:07.744Z,30.60
2019-05-13T12:51:34.615Z,32.60
2019-05-13T12:54:03.775Z,33.10
2019-05-13T12:56:33.377Z,34.10
2019-05-13T12:58:59.267Z,33.80
2019-05-13T13:01:26.232Z,34.30
2019-05-13T13:03:53.211Z,34.40
2019-05-13T13:06:31.037Z,35.40
2019-05-13T13:08:50.589Z,35.60
2019-05-13T13:11:17.516Z,36.40
2019-05-13T13:14:04.985Z,36.30
2019-05-13T13:16:13.385Z,34.60
2019-05-13T13:18:43.518Z,34.80
2019-05-13T13:21:08.876Z,34.80
2019-05-13T13:23:37.671Z,35.10
2019-05-13T13:26:12.992Z,35.90
2019-05-13T13:28:34.355Z,36.40
2019-05-13T13:31:04.198Z,35.60
2019-05-13T13:33:33.954Z,35.30
2019-05-13T13:36:01.164Z,35.40
2019-05-13T13:38:27.699Z,36.70
2019-05-13T13:40:54.439Z,35.90
2019-05-13T13:43:24.702Z,33.80
2019-05-13T13:46:07.504Z,34.60
2019-05-13T13:48:19.002Z,34.70
2019-05-13T13:50:45.903Z,33.90
2019-05-13T13:53:14.016Z,33.20
2019-05-13T13:55:44.363Z,33.80
2019-05-13T13:58:13.900Z,33.90
2019-05-13T14:00:52.569Z,31.60
2019-05-13T14:03:07.777Z,32.80
2019-05-13T14:05:36.263Z,34.80
2019-05-13T14:06:25.321Z,29.30
2019-05-13T14:08:03.587Z,31.90
2019-05-13T14:10:31.875Z,31.00
2019-05-13T14:13:02.323Z,30.50
2019-05-13T14:15:31.032Z,31.30
2019-05-13T14:17:56.535Z,33.30
2019-05-13T14:20:23.508Z,33.30
2019-05-13T14:22:56.772Z,32.00
2019-05-13T14:25:19.155Z,31.50
2019-05-13T14:27:45.863Z,32.80
2019-05-13T14:30:12.823Z,34.30
2019-05-13T14:32:41.763Z,32.90
2019-05-13T14:35:09.776Z,33.50
2019-05-13T14:37:37.484Z,32.30
2019-05-13T14:40:05.343Z,33.80
2019-05-13T14:42:32.386Z,34.20
2019-05-13T14:45:01.593Z,34.90
2019-05-13T14:47:27.819Z,37.00
2019-05-13T14:49:54.711Z,38.30
2019-05-13T14:52:22.254Z,36.10
2019-05-13T14:54:51.354Z,36.00
2019-05-13T14:57:18.184Z,34.80
2019-05-13T14:59:45.003Z,36.00
2019-05-13T15:02:12.107Z,36.10
2019-05-13T15:04:41.726Z,36.40
2019-05-13T15:07:07.971Z,36.50
2019-05-13T15:09:34.703Z,36.10
2019-05-13T15:12:02.194Z,35.00
2019-05-13T15:14:31.752Z,36.10
2019-05-13T15:17:02.963Z,36.20
2019-05-13T15:19:26.631Z,37.20
2019-05-13T15:21:53.467Z,37.10
2019-05-13T15:24:21.324Z,39.00
2019-05-13T15:26:48.235Z,40.30
2019-05-13T15:29:15.015Z,39.30
2019-05-13T15:31:42.282Z,38.50
2019-05-13T15:34:09.398Z,38.70
2019-05-13T15:36:36.242Z,37.90
2019-05-13T15:39:05.149Z,38.70
2019-05-13T15:41:32.169Z,38.70
2019-05-13T15:43:58.971Z,37.30
2019-05-13T15:46:25.717Z,36.60
2019-05-13T15:48:52.458Z,36.50
2019-05-13T15:51:21.850Z,37.60
2019-05-13T15:53:48.083Z,38.20
2019-05-13T15:56:14.955Z,38.60
2019-05-13T15:58:44.484Z,39.50
2019-05-13T16:01:12.433Z,38.60
2019-05-13T16:03:41.115Z,38.80
2019-05-13T16:06:07.959Z,38.00
2019-05-13T16:08:34.927Z,39.60
2019-05-13T16:11:02.377Z,39.00
2019-05-13T16:13:31.117Z,38.50
2019-05-13T16:15:58.285Z,39.10
2019-05-13T16:18:25.067Z,40.20
2019-05-13T16:20:52.047Z,39.00
2019-05-13T16:23:21.154Z,39.00
2019-05-13T16:25:47.882Z,39.80
2019-05-13T16:28:15.319Z,40.10
2019-05-13T16:30:42.154Z,39.70
2019-05-13T16:33:11.990Z,38.90
2019-05-13T16:35:38.043Z,38.60
2019-05-13T16:38:05.039Z,39.20
2019-05-13T16:40:36.416Z,40.80
2019-05-13T16:43:01.341Z,41.30
2019-05-13T16:45:28.505Z,42.10
2019-05-13T16:47:58.814Z,43.00
2019-05-13T16:50:24.195Z,41.50
2019-05-13T16:52:51.359Z,40.20
2019-05-13T16:55:18.391Z,40.80
2019-05-13T16:57:45.286Z,40.90
2019-05-13T17:00:14.092Z,42.30
2019-05-13T17:02:42.070Z,42.20
2019-05-13T17:05:11.841Z,42.90
2019-05-13T17:07:38.543Z,43.10
2019-05-13T17:10:06.100Z,43.50
2019-05-13T17:12:33.168Z,43.30
2019-05-13T17:15:03.813Z,42.00
2019-05-13T17:17:31.792Z,41.70
2019-05-13T17:19:58.769Z,41.50
2019-05-13T17:22:25.949Z,41.50
2019-05-13T17:24:52.738Z,42.30
2019-05-13T17:27:21.373Z,43.00
2019-05-13T17:29:48.303Z,43.70
2019-05-13T17:32:15.195Z,43.70
2019-05-13T17:34:45.510Z,43.60
2019-05-13T17:37:11.756Z,43.80
2019-05-13T17:39:41.313Z,44.00
2019-05-13T17:42:07.418Z,44.30
2019-05-13T17:44:34.271Z,45.40
2019-05-13T17:47:01.893Z,46.30
2019-05-13T17:49:31.567Z,46.20
2019-05-13T17:51:58.074Z,46.20
2019-05-13T17:54:24.843Z,46.10
2019-05-13T17:56:51.721Z,46.70
2019-05-13T17:59:18.631Z,46.20
2019-05-13T18:01:45.691Z,46.70
2019-05-13T18:04:12.427Z,46.90
2019-05-13T18:06:41.536Z,47.20
2019-05-13T18:09:08.091Z,47.70
2019-05-13T18:11:35.067Z,47.20
2019-05-13T18:14:04.972Z,47.30
2019-05-13T18:16:32.456Z,47.80
2019-05-13T18:18:59.619Z,48.30
2019-05-13T18:21:26.551Z,49.40
2019-05-13T18:23:53.546Z,49.00
2019-05-13T18:26:21.630Z,49.40
2019-05-13T18:28:48.693Z,49.90
2019-05-13T18:31:15.592Z,50.60
2019-05-13T18:33:42.498Z,50.50
2019-05-13T18:36:11.844Z,50.90
2019-05-13T18:38:38.367Z,51.70
2019-05-13T18:41:05.347Z,52.00
2019-05-13T18:43:32.288Z,52.60
2019-05-13T18:46:01.797Z,53.00
2019-05-13T18:48:27.901Z,53.30
2019-05-13T18:50:54.755Z,53.80
2019-05-13T18:53:21.688Z,54.40
2019-05-13T18:55:48.684Z,54.30
2019-05-13T18:58:35.156Z,54.90
2019-05-13T19:01:02.065Z,55.00
2019-05-13T19:03:28.818Z,55.70
2019-05-13T19:05:55.698Z,56.30
2019-05-13T19:08:22.447Z,56.90
2019-05-13T19:10:49.331Z,57.10
2019-05-13T19:13:16.251Z,58.00
2019-05-13T19:15:43.271Z,58.00
2019-05-13T19:18:12.079Z,58.80
2019-05-13T19:20:39.179Z,58.80
2019-05-13T19:23:05.935Z,59.30
2019-05-13T19:25:32.831Z,60.00
2019-05-13T19:28:02.196Z,59.80
2019-05-13T19:30:28.456Z,60.20
2019-05-13T19:32:55.411Z,61.20
2019-05-13T19:35:22.363Z,61.30
2019-05-13T19:37:51.514Z,61.10
2019-05-13T19:40:18.020Z,62.50
2019-05-13T19:42:45.331Z,62.90
2019-05-13T19:45:12.622Z,62.30
2019-05-13T19:47:41.823Z,62.70
2019-05-13T19:50:10.982Z,62.90
2019-05-13T19:52:37.858Z,63.20
2019-05-13T19:55:05.263Z,63.60
2019-05-13T19:57:32.187Z,72.60
2019-05-13T20:00:01.189Z,71.80
2019-05-13T20:02:27.831Z,75.10
2019-05-13T20:04:54.588Z,68.30
2019-05-13T20:07:22.462Z,71.30
2019-05-13T20:09:51.732Z,72.30
2019-05-13T20:12:18.327Z,73.30
2019-05-13T20:14:45.089Z,72.40
2019-05-13T20:17:12.330Z,72.10
2019-05-13T20:19:47.718Z,74.40
2019-05-13T20:22:08.259Z,73.80
2019-05-13T20:24:35.255Z,73.50
2019-05-13T20:27:02.170Z,76.00
2019-05-13T20:29:29.035Z,74.10
2019-05-13T20:31:55.889Z,75.60
2019-05-13T20:34:24.046Z,75.80
2019-05-13T20:36:51.574Z,75.30
2019-05-13T20:39:18.675Z,76.10
2019-05-13T20:41:45.573Z,77.70
2019-05-13T20:44:12.488Z,77.90
2019-05-13T20:46:41.933Z,81.60
2019-05-13T20:49:08.076Z,78.60
2019-05-13T20:51:34.907Z,77.80
2019-05-13T20:54:02.404Z,77.80
2019-05-13T20:56:31.645Z,78.50
2019-05-13T20:58:58.299Z,76.20
2019-05-13T21:01:25.171Z,75.60
2019-05-13T21:03:51.867Z,76.20
2019-05-13T21:06:18.587Z,79.20
2019-05-13T21:08:45.479Z,77.60
2019-05-13T21:11:12.323Z,80.00
2019-05-13T21:13:41.119Z,79.10
2019-05-13T21:16:07.967Z,77.20
2019-05-13T21:18:34.762Z,76.40
2019-05-13T21:21:01.583Z,77.30
2019-05-13T21:23:28.415Z,76.40
2019-05-13T21:25:55.474Z,77.00
2019-05-13T21:28:22.343Z,78.20
2019-05-13T21:30:51.290Z,78.30
2019-05-13T21:33:17.779Z,77.30
2019-05-13T21:35:44.520Z,77.60
2019-05-13T21:38:11.486Z,78.30
2019-05-13T21:40:38.471Z,77.40
2019-05-13T21:43:05.330Z,80.00
2019-05-13T21:45:32.161Z,77.90
2019-05-13T21:47:58.935Z,77.40
2019-05-13T21:50:34.268Z,77.80
2019-05-13T21:52:54.640Z,79.30
2019-05-13T21:55:21.757Z,78.70
2019-05-13T21:57:48.772Z,79.60
2019-05-13T22:00:23.386Z,78.40
2019-05-13T22:02:48.839Z,78.00
2019-05-13T22:05:15.824Z,78.20
2019-05-13T22:07:42.796Z,77.80
2019-05-13T22:10:09.995Z,77.50
2019-05-13T22:12:36.759Z,78.00
2019-05-13T22:15:04.218Z,78.70
2019-05-13T22:17:31.660Z,77.50
2019-05-13T22:19:58.739Z,77.70
2019-05-13T22:22:25.527Z,76.60
2019-05-13T22:24:52.483Z,76.90
2019-05-13T22:27:21.691Z,79.00
2019-05-13T22:29:48.367Z,78.00
2019-05-13T22:32:15.432Z,78.20
2019-05-13T22:34:42.155Z,77.90
2019-05-13T22:37:11.483Z,76.40
2019-05-13T22:39:37.785Z,77.80
2019-05-13T22:42:04.784Z,78.30
2019-05-13T22:44:32.492Z,78.40
2019-05-13T22:47:02.246Z,77.80
2019-05-13T22:49:28.362Z,79.70
2019-05-13T22:51:55.199Z,78.60
2019-05-13T22:54:22.047Z,78.80
2019-05-13T22:56:48.815Z,79.80
2019-05-13T22:59:15.631Z,78.50
2019-05-13T23:01:42.543Z,78.20
2019-05-13T23:04:11.471Z,80.60
2019-05-13T23:06:38.468Z,80.00
2019-05-13T23:09:05.607Z,79.80
2019-05-13T23:11:32.439Z,80.30
2019-05-13T23:14:08.991Z,79.00
2019-05-13T23:16:28.127Z,79.90
2019-05-13T23:18:54.968Z,79.00
2019-05-13T23:21:21.799Z,78.80
2019-05-13T23:23:48.781Z,79.30
2019-05-13T23:26:15.804Z,80.40
2019-05-13T23:28:42.552Z,79.00
2019-05-13T23:31:09.423Z,80.00
2019-05-13T23:33:36.155Z,81.10
2019-05-13T23:36:03.202Z,80.40
2019-05-13T23:38:31.994Z,80.80
2019-05-13T23:40:58.807Z,79.90
2019-05-13T23:43:25.659Z,81.40
2019-05-13T23:45:52.389Z,80.70
2019-05-13T23:48:21.395Z,81.30
2019-05-13T23:50:47.832Z,81.40
2019-05-13T23:53:14.707Z,82.20
2019-05-13T23:55:41.561Z,80.50
2019-05-13T23:58:08.427Z,81.00
